sensor_id;sensor_type;location;lat;lon;timestamp;temperature;humidity
66582;SHT31;53438;48.898;2.308;2022-07-04T00:00:01;18.06;60.95
66582;SHT31;53438;48.898;2.308;2022-07-04T03:01:33;16.46;64.34
66582;SHT31;53438;48.898;2.308;2022-07-04T03:03:58;16.63;63.95
66582;SHT31;53438;48.898;2.308;2022-07-04T03:06:24;16.52;64.13
66582;SHT31;53438;48.898;2.308;2022-07-04T03:08:49;16.70;63.68
66582;SHT31;53438;48.898;2.308;2022-07-04T03:11:14;16.42;64.37
66582;SHT31;53438;48.898;2.308;2022-07-04T03:13:40;16.53;64.04
66582;SHT31;53438;48.898;2.308;2022-07-04T03:16:05;16.49;64.11
66582;SHT31;53438;48.898;2.308;2022-07-04T03:18:31;16.56;63.99
66582;SHT31;53438;48.898;2.308;2022-07-04T03:20:56;16.53;64.17
66582;SHT31;53438;48.898;2.308;2022-07-04T03:23:22;16.77;63.64
66582;SHT31;53438;48.898;2.308;2022-07-04T03:25:47;16.80;63.37
66582;SHT31;53438;48.898;2.308;2022-07-04T03:28:12;16.98;62.93
66582;SHT31;53438;48.898;2.308;2022-07-04T03:30:38;17.03;62.90
66582;SHT31;53438;48.898;2.308;2022-07-04T03:33:03;16.91;63.10
66582;SHT31;53438;48.898;2.308;2022-07-04T03:35:29;16.67;63.63
66582;SHT31;53438;48.898;2.308;2022-07-04T03:37:54;16.48;64.40
66582;SHT31;53438;48.898;2.308;2022-07-04T03:40:20;16.55;64.22
66582;SHT31;53438;48.898;2.308;2022-07-04T03:42:46;16.59;64.26
66582;SHT31;53438;48.898;2.308;2022-07-04T03:45:11;16.84;63.52
66582;SHT31;53438;48.898;2.308;2022-07-04T03:47:36;16.91;63.32
66582;SHT31;53438;48.898;2.308;2022-07-04T03:50:02;17.00;62.92
66582;SHT31;53438;48.898;2.308;2022-07-04T03:52:28;17.00;63.12
66582;SHT31;53438;48.898;2.308;2022-07-04T03:54:53;16.67;64.00
66582;SHT31;53438;48.898;2.308;2022-07-04T03:57:19;16.55;64.38
66582;SHT31;53438;48.898;2.308;2022-07-04T03:59:44;16.56;64.53
66582;SHT31;53438;48.898;2.308;2022-07-04T04:02:09;16.40;64.92
66582;SHT31;53438;48.898;2.308;2022-07-04T04:04:35;16.48;64.83
66582;SHT31;53438;48.898;2.308;2022-07-04T04:07:19;16.73;64.04
66582;SHT31;53438;48.898;2.308;2022-07-04T04:09:44;16.92;63.45
66582;SHT31;53438;48.898;2.308;2022-07-04T04:12:10;16.85;64.13
66582;SHT31;53438;48.898;2.308;2022-07-04T04:14:35;16.28;65.47
66582;SHT31;53438;48.898;2.308;2022-07-04T04:17:00;16.19;66.16
66582;SHT31;53438;48.898;2.308;2022-07-04T04:19:26;16.18;66.14
66582;SHT31;53438;48.898;2.308;2022-07-04T04:21:51;16.55;65.36
66582;SHT31;53438;48.898;2.308;2022-07-04T04:24:16;16.46;65.44
66582;SHT31;53438;48.898;2.308;2022-07-04T04:26:42;16.48;65.20
66582;SHT31;53438;48.898;2.308;2022-07-04T04:29:07;16.83;64.48
66582;SHT31;53438;48.898;2.308;2022-07-04T04:31:32;16.87;64.34
66582;SHT31;53438;48.898;2.308;2022-07-04T04:33:58;17.03;64.06
66582;SHT31;53438;48.898;2.308;2022-07-04T04:36:23;16.74;64.44
66582;SHT31;53438;48.898;2.308;2022-07-04T04:38:49;16.95;64.12
66582;SHT31;53438;48.898;2.308;2022-07-04T04:41:14;17.12;63.52
66582;SHT31;53438;48.898;2.308;2022-07-04T04:43:41;16.91;63.93
66582;SHT31;53438;48.898;2.308;2022-07-04T04:46:07;16.73;64.13
66582;SHT31;53438;48.898;2.308;2022-07-04T04:48:32;16.71;64.86
66582;SHT31;53438;48.898;2.308;2022-07-04T04:50:57;17.01;64.05
66582;SHT31;53438;48.898;2.308;2022-07-04T04:53:23;16.91;64.25
66582;SHT31;53438;48.898;2.308;2022-07-04T04:55:54;16.84;64.52
66582;SHT31;53438;48.898;2.308;2022-07-04T04:58:21;17.04;64.17
66582;SHT31;53438;48.898;2.308;2022-07-04T05:00:47;16.83;64.71
66582;SHT31;53438;48.898;2.308;2022-07-04T05:03:15;16.94;64.30
66582;SHT31;53438;48.898;2.308;2022-07-04T05:05:41;17.21;63.69
66582;SHT31;53438;48.898;2.308;2022-07-04T05:08:06;17.18;63.73
66582;SHT31;53438;48.898;2.308;2022-07-04T05:10:32;17.31;63.33
66582;SHT31;53438;48.898;2.308;2022-07-04T05:12:57;17.14;63.40
66582;SHT31;53438;48.898;2.308;2022-07-04T05:15:23;16.79;65.02
66582;SHT31;53438;48.898;2.308;2022-07-04T05:17:48;16.66;65.49
66582;SHT31;53438;48.898;2.308;2022-07-04T05:20:14;16.80;65.20
66582;SHT31;53438;48.898;2.308;2022-07-04T05:22:39;17.04;64.53
66582;SHT31;53438;48.898;2.308;2022-07-04T05:25:05;17.04;64.22
66582;SHT31;53438;48.898;2.308;2022-07-04T05:27:30;17.04;64.45
66582;SHT31;53438;48.898;2.308;2022-07-04T05:29:57;17.17;64.27
66582;SHT31;53438;48.898;2.308;2022-07-04T05:32:23;17.41;63.73
66582;SHT31;53438;48.898;2.308;2022-07-04T05:34:49;17.66;63.02
66582;SHT31;53438;48.898;2.308;2022-07-04T05:37:14;17.78;62.54
66582;SHT31;53438;48.898;2.308;2022-07-04T05:39:39;16.92;64.79
66582;SHT31;53438;48.898;2.308;2022-07-04T05:42:05;16.84;65.13
66582;SHT31;53438;48.898;2.308;2022-07-04T05:44:30;16.61;65.93
66582;SHT31;53438;48.898;2.308;2022-07-04T05:46:56;16.80;65.42
66582;SHT31;53438;48.898;2.308;2022-07-04T05:49:21;17.22;64.71
66582;SHT31;53438;48.898;2.308;2022-07-04T05:51:47;17.35;64.40
66582;SHT31;53438;48.898;2.308;2022-07-04T05:54:12;17.46;64.00
66582;SHT31;53438;48.898;2.308;2022-07-04T05:56:38;17.15;64.66
66582;SHT31;53438;48.898;2.308;2022-07-04T05:59:04;17.21;64.67
66582;SHT31;53438;48.898;2.308;2022-07-04T06:01:30;17.20;64.84
66582;SHT31;53438;48.898;2.308;2022-07-04T06:03:55;17.48;63.66
66582;SHT31;53438;48.898;2.308;2022-07-04T06:06:21;17.53;63.86
66582;SHT31;53438;48.898;2.308;2022-07-04T06:08:46;17.28;64.18
66582;SHT31;53438;48.898;2.308;2022-07-04T06:11:11;17.39;64.02
66582;SHT31;53438;48.898;2.308;2022-07-04T06:13:38;17.14;64.54
66582;SHT31;53438;48.898;2.308;2022-07-04T06:16:03;17.28;64.25
66582;SHT31;53438;48.898;2.308;2022-07-04T06:18:29;17.50;63.77
66582;SHT31;53438;48.898;2.308;2022-07-04T06:20:54;17.90;62.98
66582;SHT31;53438;48.898;2.308;2022-07-04T06:23:21;17.46;63.52
66582;SHT31;53438;48.898;2.308;2022-07-04T06:25:46;17.45;63.86
66582;SHT31;53438;48.898;2.308;2022-07-04T06:28:11;17.73;63.33
66582;SHT31;53438;48.898;2.308;2022-07-04T06:30:37;18.04;62.49
66582;SHT31;53438;48.898;2.308;2022-07-04T06:33:02;18.18;61.58
66582;SHT31;53438;48.898;2.308;2022-07-04T06:35:31;18.27;61.54
66582;SHT31;53438;48.898;2.308;2022-07-04T06:38:17;17.97;61.40
66582;SHT31;53438;48.898;2.308;2022-07-04T06:40:43;18.01;61.65
66582;SHT31;53438;48.898;2.308;2022-07-04T06:43:09;18.13;60.90
66582;SHT31;53438;48.898;2.308;2022-07-04T06:45:35;18.30;60.82
66582;SHT31;53438;48.898;2.308;2022-07-04T06:48:01;18.37;61.04
66582;SHT31;53438;48.898;2.308;2022-07-04T06:50:27;18.54;59.96
66582;SHT31;53438;48.898;2.308;2022-07-04T06:52:52;18.54;59.53
66582;SHT31;53438;48.898;2.308;2022-07-04T06:55:18;18.52;60.23
66582;SHT31;53438;48.898;2.308;2022-07-04T06:57:43;18.49;59.73
66582;SHT31;53438;48.898;2.308;2022-07-04T07:00:09;18.81;59.43
66582;SHT31;53438;48.898;2.308;2022-07-04T07:02:36;18.95;58.56
66582;SHT31;53438;48.898;2.308;2022-07-04T07:05:02;19.37;57.81
66582;SHT31;53438;48.898;2.308;2022-07-04T07:07:27;19.45;57.22
66582;SHT31;53438;48.898;2.308;2022-07-04T07:09:54;19.84;56.03
66582;SHT31;53438;48.898;2.308;2022-07-04T07:12:22;19.74;56.59
66582;SHT31;53438;48.898;2.308;2022-07-04T07:14:49;19.56;57.03
66582;SHT31;53438;48.898;2.308;2022-07-04T07:17:15;19.98;55.79
66582;SHT31;53438;48.898;2.308;2022-07-04T07:19:42;19.97;55.82
66582;SHT31;53438;48.898;2.308;2022-07-04T07:22:09;19.63;56.99
66582;SHT31;53438;48.898;2.308;2022-07-04T07:24:34;19.09;58.19
66582;SHT31;53438;48.898;2.308;2022-07-04T07:27:00;18.78;58.54
66582;SHT31;53438;48.898;2.308;2022-07-04T07:29:25;19.19;56.67
66582;SHT31;53438;48.898;2.308;2022-07-04T07:31:51;19.78;55.56
66582;SHT31;53438;48.898;2.308;2022-07-04T07:34:16;19.97;54.82
66582;SHT31;53438;48.898;2.308;2022-07-04T07:36:41;20.42;54.41
66582;SHT31;53438;48.898;2.308;2022-07-04T07:39:07;20.62;54.04
66582;SHT31;53438;48.898;2.308;2022-07-04T07:41:32;20.83;53.28
66582;SHT31;53438;48.898;2.308;2022-07-04T07:43:58;21.01;52.52
66582;SHT31;53438;48.898;2.308;2022-07-04T07:46:23;21.04;52.50
66582;SHT31;53438;48.898;2.308;2022-07-04T07:48:48;21.00;52.21
66582;SHT31;53438;48.898;2.308;2022-07-04T07:51:14;20.86;52.15
66582;SHT31;53438;48.898;2.308;2022-07-04T07:53:41;21.00;51.34
66582;SHT31;53438;48.898;2.308;2022-07-04T07:56:07;21.27;50.23
66582;SHT31;53438;48.898;2.308;2022-07-04T07:58:33;20.73;51.16
66582;SHT31;53438;48.898;2.308;2022-07-04T08:00:58;20.53;52.65
66582;SHT31;53438;48.898;2.308;2022-07-04T08:03:24;20.75;51.70
66582;SHT31;53438;48.898;2.308;2022-07-04T08:06:08;20.40;53.07
66582;SHT31;53438;48.898;2.308;2022-07-04T08:08:34;20.93;51.85
66582;SHT31;53438;48.898;2.308;2022-07-04T08:11:00;20.94;50.76
66582;SHT31;53438;48.898;2.308;2022-07-04T08:13:25;21.00;49.85
66582;SHT31;53438;48.898;2.308;2022-07-04T08:15:50;21.49;49.02
66582;SHT31;53438;48.898;2.308;2022-07-04T08:18:16;21.54;48.63
66582;SHT31;53438;48.898;2.308;2022-07-04T08:20:43;21.08;50.05
66582;SHT31;53438;48.898;2.308;2022-07-04T08:23:09;20.93;51.15
66582;SHT31;53438;48.898;2.308;2022-07-04T08:25:35;21.32;50.08
66582;SHT31;53438;48.898;2.308;2022-07-04T08:28:00;21.52;49.13
66582;SHT31;53438;48.898;2.308;2022-07-04T08:30:26;21.61;47.06
66582;SHT31;53438;48.898;2.308;2022-07-04T08:32:51;20.93;48.78
66582;SHT31;53438;48.898;2.308;2022-07-04T08:35:17;21.27;48.73
66582;SHT31;53438;48.898;2.308;2022-07-04T08:37:42;21.59;48.17
66582;SHT31;53438;48.898;2.308;2022-07-04T08:40:08;21.37;48.52
66582;SHT31;53438;48.898;2.308;2022-07-04T08:42:36;21.71;48.43
66582;SHT31;53438;48.898;2.308;2022-07-04T08:45:02;21.01;49.90
66582;SHT31;53438;48.898;2.308;2022-07-04T08:47:32;20.79;50.34
66582;SHT31;53438;48.898;2.308;2022-07-04T08:50:10;21.07;49.79
66582;SHT31;53438;48.898;2.308;2022-07-04T08:52:42;20.66;49.99
66582;SHT31;53438;48.898;2.308;2022-07-04T08:55:10;20.96;50.08
66582;SHT31;53438;48.898;2.308;2022-07-04T08:57:56;20.76;50.34
66582;SHT31;53438;48.898;2.308;2022-07-04T09:00:40;21.32;49.12
66582;SHT31;53438;48.898;2.308;2022-07-04T09:03:07;21.55;48.35
66582;SHT31;53438;48.898;2.308;2022-07-04T09:05:33;22.03;46.80
66582;SHT31;53438;48.898;2.308;2022-07-04T09:07:59;21.55;47.22
66582;SHT31;53438;48.898;2.308;2022-07-04T09:10:25;21.82;46.77
66582;SHT31;53438;48.898;2.308;2022-07-04T09:12:51;21.45;47.44
66582;SHT31;53438;48.898;2.308;2022-07-04T09:15:16;20.93;49.32
66582;SHT31;53438;48.898;2.308;2022-07-04T09:17:42;21.05;48.09
66582;SHT31;53438;48.898;2.308;2022-07-04T09:20:16;20.83;48.76
66582;SHT31;53438;48.898;2.308;2022-07-04T09:22:42;21.42;47.95
66582;SHT31;53438;48.898;2.308;2022-07-04T09:25:08;21.76;47.29
66582;SHT31;53438;48.898;2.308;2022-07-04T09:27:39;21.49;47.79
66582;SHT31;53438;48.898;2.308;2022-07-04T09:30:14;21.59;47.71
66582;SHT31;53438;48.898;2.308;2022-07-04T09:32:54;21.54;47.73
66582;SHT31;53438;48.898;2.308;2022-07-04T09:35:26;22.00;47.04
66582;SHT31;53438;48.898;2.308;2022-07-04T09:37:57;22.06;45.34
66582;SHT31;53438;48.898;2.308;2022-07-04T09:40:28;22.29;45.23
66582;SHT31;53438;48.898;2.308;2022-07-04T09:43:01;22.14;46.08
66582;SHT31;53438;48.898;2.308;2022-07-04T09:45:35;22.00;44.35
66582;SHT31;53438;48.898;2.308;2022-07-04T09:48:17;22.18;44.25
66582;SHT31;53438;48.898;2.308;2022-07-04T09:50:43;22.39;44.64
66582;SHT31;53438;48.898;2.308;2022-07-04T09:53:08;21.89;44.77
66582;SHT31;53438;48.898;2.308;2022-07-04T09:55:35;22.09;45.67
66582;SHT31;53438;48.898;2.308;2022-07-04T09:58:09;21.71;45.60
66582;SHT31;53438;48.898;2.308;2022-07-04T10:00:40;21.96;45.26
66582;SHT31;53438;48.898;2.308;2022-07-04T10:03:25;21.93;45.49
66582;SHT31;53438;48.898;2.308;2022-07-04T10:06:11;21.72;45.57
66582;SHT31;53438;48.898;2.308;2022-07-04T10:08:39;21.28;46.55
66582;SHT31;53438;48.898;2.308;2022-07-04T10:11:05;21.82;45.50
66582;SHT31;53438;48.898;2.308;2022-07-04T10:13:32;22.23;44.30
66582;SHT31;53438;48.898;2.308;2022-07-04T10:15:58;22.07;43.17
66582;SHT31;53438;48.898;2.308;2022-07-04T10:18:24;22.51;42.09
66582;SHT31;53438;48.898;2.308;2022-07-04T10:20:51;22.37;42.28
66582;SHT31;53438;48.898;2.308;2022-07-04T10:23:18;22.17;42.21
66582;SHT31;53438;48.898;2.308;2022-07-04T10:25:51;22.69;42.14
66582;SHT31;53438;48.898;2.308;2022-07-04T10:28:17;23.02;41.74
66582;SHT31;53438;48.898;2.308;2022-07-04T10:30:53;23.06;40.90
66582;SHT31;53438;48.898;2.308;2022-07-04T10:33:24;22.63;41.93
66582;SHT31;53438;48.898;2.308;2022-07-04T10:38:17;22.40;41.36
66582;SHT31;53438;48.898;2.308;2022-07-04T10:40:51;22.12;42.39
66582;SHT31;53438;48.898;2.308;2022-07-04T10:48:51;22.26;43.75
66582;SHT31;53438;48.898;2.308;2022-07-04T10:51:53;22.32;43.45
66582;SHT31;53438;48.898;2.308;2022-07-04T10:56:55;22.50;42.63
66582;SHT31;53438;48.898;2.308;2022-07-04T10:59:25;22.84;42.12
66582;SHT31;53438;48.898;2.308;2022-07-04T11:02:00;23.16;41.78
66582;SHT31;53438;48.898;2.308;2022-07-04T11:05:04;23.02;42.23
66582;SHT31;53438;48.898;2.308;2022-07-04T11:17:56;22.69;42.89
66582;SHT31;53438;48.898;2.308;2022-07-04T11:20:23;23.03;42.24
66582;SHT31;53438;48.898;2.308;2022-07-04T11:22:48;23.19;42.32
66582;SHT31;53438;48.898;2.308;2022-07-04T11:25:14;23.30;41.92
66582;SHT31;53438;48.898;2.308;2022-07-04T11:27:40;23.66;41.41
66582;SHT31;53438;48.898;2.308;2022-07-04T11:30:07;23.93;40.93
66582;SHT31;53438;48.898;2.308;2022-07-04T11:32:35;24.08;40.58
66582;SHT31;53438;48.898;2.308;2022-07-04T11:35:01;23.83;40.54
66582;SHT31;53438;48.898;2.308;2022-07-04T11:37:26;23.94;39.84
66582;SHT31;53438;48.898;2.308;2022-07-04T11:39:53;24.04;39.72
66582;SHT31;53438;48.898;2.308;2022-07-04T11:42:39;24.04;40.10
66582;SHT31;53438;48.898;2.308;2022-07-04T11:45:22;23.97;39.81
66582;SHT31;53438;48.898;2.308;2022-07-04T11:47:48;23.94;39.61
66582;SHT31;53438;48.898;2.308;2022-07-04T11:50:15;24.17;39.24
66582;SHT31;53438;48.898;2.308;2022-07-04T11:52:46;23.81;39.99
66582;SHT31;53438;48.898;2.308;2022-07-04T11:55:15;24.14;39.07
66582;SHT31;53438;48.898;2.308;2022-07-04T11:57:46;24.25;38.76
66582;SHT31;53438;48.898;2.308;2022-07-04T12:00:15;24.18;38.72
66582;SHT31;53438;48.898;2.308;2022-07-04T12:02:42;24.48;38.32
66582;SHT31;53438;48.898;2.308;2022-07-04T12:05:09;24.01;38.67
66582;SHT31;53438;48.898;2.308;2022-07-04T12:07:40;23.59;38.95
66582;SHT31;53438;48.898;2.308;2022-07-04T12:10:10;23.80;39.20
66582;SHT31;53438;48.898;2.308;2022-07-04T12:12:59;24.11;39.06
66582;SHT31;53438;48.898;2.308;2022-07-04T12:15:35;23.57;39.10
66582;SHT31;53438;48.898;2.308;2022-07-04T12:18:01;23.91;39.36
66582;SHT31;53438;48.898;2.308;2022-07-04T12:20:27;24.26;39.29
66582;SHT31;53438;48.898;2.308;2022-07-04T12:22:55;24.01;39.63
66582;SHT31;53438;48.898;2.308;2022-07-04T12:25:31;24.31;38.90
66582;SHT31;53438;48.898;2.308;2022-07-04T12:30:33;24.24;39.21
66582;SHT31;53438;48.898;2.308;2022-07-04T12:33:01;24.52;38.57
66582;SHT31;53438;48.898;2.308;2022-07-04T12:35:39;24.72;38.32
66582;SHT31;53438;48.898;2.308;2022-07-04T12:38:14;24.75;38.58
66582;SHT31;53438;48.898;2.308;2022-07-04T12:43:25;24.68;38.04
66582;SHT31;53438;48.898;2.308;2022-07-04T12:45:53;24.41;38.20
66582;SHT31;53438;48.898;2.308;2022-07-04T12:48:23;24.66;37.98
66582;SHT31;53438;48.898;2.308;2022-07-04T12:50:49;24.39;38.61
66582;SHT31;53438;48.898;2.308;2022-07-04T12:53:16;24.59;38.99
66582;SHT31;53438;48.898;2.308;2022-07-04T12:55:43;24.72;38.31
66582;SHT31;53438;48.898;2.308;2022-07-04T12:58:09;24.73;38.68
66582;SHT31;53438;48.898;2.308;2022-07-04T13:00:37;24.76;38.10
66582;SHT31;53438;48.898;2.308;2022-07-04T13:03:04;24.79;38.02
66582;SHT31;53438;48.898;2.308;2022-07-04T13:05:30;24.75;38.40
66582;SHT31;53438;48.898;2.308;2022-07-04T13:07:55;24.91;38.26
66582;SHT31;53438;48.898;2.308;2022-07-04T13:10:21;24.77;38.08
66582;SHT31;53438;48.898;2.308;2022-07-04T13:12:47;24.83;38.56
66582;SHT31;53438;48.898;2.308;2022-07-04T13:15:12;24.94;38.04
66582;SHT31;53438;48.898;2.308;2022-07-04T13:17:37;24.91;38.19
66582;SHT31;53438;48.898;2.308;2022-07-04T13:20:04;24.56;38.85
66582;SHT31;53438;48.898;2.308;2022-07-04T13:22:31;24.35;38.81
66582;SHT31;53438;48.898;2.308;2022-07-04T13:24:56;24.52;38.80
66582;SHT31;53438;48.898;2.308;2022-07-04T13:27:22;24.76;37.90
66582;SHT31;53438;48.898;2.308;2022-07-04T13:29:47;24.51;38.10
66582;SHT31;53438;48.898;2.308;2022-07-04T13:32:13;24.56;37.93
66582;SHT31;53438;48.898;2.308;2022-07-04T13:34:38;24.76;37.93
66582;SHT31;53438;48.898;2.308;2022-07-04T13:37:04;24.94;37.72
66582;SHT31;53438;48.898;2.308;2022-07-04T13:39:30;25.02;37.78
66582;SHT31;53438;48.898;2.308;2022-07-04T13:41:56;25.20;37.93
66582;SHT31;53438;48.898;2.308;2022-07-04T13:44:21;25.34;37.35
66582;SHT31;53438;48.898;2.308;2022-07-04T13:46:47;25.04;36.77
66582;SHT31;53438;48.898;2.308;2022-07-04T13:49:12;25.03;36.91
66582;SHT31;53438;48.898;2.308;2022-07-04T13:51:39;25.04;36.55
66582;SHT31;53438;48.898;2.308;2022-07-04T13:54:05;24.97;36.20
66582;SHT31;53438;48.898;2.308;2022-07-04T13:56:31;25.17;36.03
66582;SHT31;53438;48.898;2.308;2022-07-04T13:58:58;25.10;34.92
66582;SHT31;53438;48.898;2.308;2022-07-04T14:01:24;25.28;34.80
66582;SHT31;53438;48.898;2.308;2022-07-04T14:03:50;25.31;34.66
66582;SHT31;53438;48.898;2.308;2022-07-04T14:06:17;25.04;36.81
66582;SHT31;53438;48.898;2.308;2022-07-04T14:08:42;25.78;36.16
66582;SHT31;53438;48.898;2.308;2022-07-04T14:11:08;26.13;35.35
66582;SHT31;53438;48.898;2.308;2022-07-04T14:13:34;25.74;33.90
66582;SHT31;53438;48.898;2.308;2022-07-04T14:16:01;25.78;33.45
66582;SHT31;53438;48.898;2.308;2022-07-04T14:18:29;26.13;33.32
66582;SHT31;53438;48.898;2.308;2022-07-04T14:20:55;25.75;33.85
66582;SHT31;53438;48.898;2.308;2022-07-04T14:23:20;26.03;33.90
66582;SHT31;53438;48.898;2.308;2022-07-04T14:26:04;26.22;33.74
66582;SHT31;53438;48.898;2.308;2022-07-04T14:28:30;26.43;33.89
66582;SHT31;53438;48.898;2.308;2022-07-04T14:30:56;26.40;33.72
66582;SHT31;53438;48.898;2.308;2022-07-04T14:33:21;26.49;33.88
66582;SHT31;53438;48.898;2.308;2022-07-04T14:35:47;26.64;34.16
66582;SHT31;53438;48.898;2.308;2022-07-04T14:38:12;26.71;33.00
66582;SHT31;53438;48.898;2.308;2022-07-04T14:40:38;26.94;35.06
66582;SHT31;53438;48.898;2.308;2022-07-04T14:43:06;26.91;33.80
66582;SHT31;53438;48.898;2.308;2022-07-04T14:45:31;26.74;33.68
66582;SHT31;53438;48.898;2.308;2022-07-04T14:47:56;26.41;34.03
66582;SHT31;53438;48.898;2.308;2022-07-04T14:50:22;26.40;34.09
66582;SHT31;53438;48.898;2.308;2022-07-04T14:52:49;26.84;33.59
66582;SHT31;53438;48.898;2.308;2022-07-04T14:55:15;26.83;33.03
66582;SHT31;53438;48.898;2.308;2022-07-04T14:57:40;27.25;33.05
66582;SHT31;53438;48.898;2.308;2022-07-04T15:00:06;27.55;33.60
66582;SHT31;53438;48.898;2.308;2022-07-04T15:02:31;27.66;32.75
66582;SHT31;53438;48.898;2.308;2022-07-04T15:04:57;27.76;32.99
66582;SHT31;53438;48.898;2.308;2022-07-04T15:07:22;27.07;33.13
66582;SHT31;53438;48.898;2.308;2022-07-04T15:09:47;27.79;33.23
66582;SHT31;53438;48.898;2.308;2022-07-04T15:12:13;27.85;32.64
66582;SHT31;53438;48.898;2.308;2022-07-04T15:14:38;27.73;32.89
66582;SHT31;53438;48.898;2.308;2022-07-04T15:17:04;27.80;32.32
66582;SHT31;53438;48.898;2.308;2022-07-04T15:19:29;27.89;32.65
66582;SHT31;53438;48.898;2.308;2022-07-04T15:21:54;27.63;32.78
66582;SHT31;53438;48.898;2.308;2022-07-04T15:24:38;27.57;32.48
66582;SHT31;53438;48.898;2.308;2022-07-04T15:27:03;27.80;33.00
66582;SHT31;53438;48.898;2.308;2022-07-04T15:29:29;27.76;32.49
66582;SHT31;53438;48.898;2.308;2022-07-04T15:31:54;28.04;32.12
66582;SHT31;53438;48.898;2.308;2022-07-04T15:34:20;28.28;31.91
66582;SHT31;53438;48.898;2.308;2022-07-04T15:36:46;28.54;32.01
66582;SHT31;53438;48.898;2.308;2022-07-04T15:39:13;28.68;31.16
66582;SHT31;53438;48.898;2.308;2022-07-04T15:41:39;28.74;30.91
66582;SHT31;53438;48.898;2.308;2022-07-04T15:44:07;28.99;31.32
66582;SHT31;53438;48.898;2.308;2022-07-04T15:46:32;28.96;30.31
66582;SHT31;53438;48.898;2.308;2022-07-04T15:48:58;28.96;30.46
66582;SHT31;53438;48.898;2.308;2022-07-04T15:51:25;28.95;30.39
66582;SHT31;53438;48.898;2.308;2022-07-04T15:53:50;28.74;30.51
66582;SHT31;53438;48.898;2.308;2022-07-04T15:56:15;28.78;30.35
66582;SHT31;53438;48.898;2.308;2022-07-04T15:58:41;28.45;30.54
66582;SHT31;53438;48.898;2.308;2022-07-04T16:01:06;28.11;30.21
66582;SHT31;53438;48.898;2.308;2022-07-04T16:03:32;28.56;30.41
66582;SHT31;53438;48.898;2.308;2022-07-04T16:05:58;29.03;29.38
66582;SHT31;53438;48.898;2.308;2022-07-04T16:08:24;28.21;29.91
66582;SHT31;53438;48.898;2.308;2022-07-04T16:10:49;27.90;30.30
66582;SHT31;53438;48.898;2.308;2022-07-04T16:13:16;28.41;30.05
66582;SHT31;53438;48.898;2.308;2022-07-04T16:15:41;28.41;30.32
66582;SHT31;53438;48.898;2.308;2022-07-04T16:18:07;28.21;30.74
66582;SHT31;53438;48.898;2.308;2022-07-04T16:20:33;27.82;31.12
66582;SHT31;53438;48.898;2.308;2022-07-04T16:22:59;28.18;30.32
66582;SHT31;53438;48.898;2.308;2022-07-04T16:25:24;27.87;31.29
66582;SHT31;53438;48.898;2.308;2022-07-04T16:27:50;27.62;31.07
66582;SHT31;53438;48.898;2.308;2022-07-04T16:30:15;27.45;31.72
66582;SHT31;53438;48.898;2.308;2022-07-04T16:32:40;27.19;32.66
66582;SHT31;53438;48.898;2.308;2022-07-04T16:35:07;27.36;32.44
66582;SHT31;53438;48.898;2.308;2022-07-04T16:37:33;27.34;32.44
66582;SHT31;53438;48.898;2.308;2022-07-04T16:39:59;27.29;33.00
66582;SHT31;53438;48.898;2.308;2022-07-04T16:42:25;27.19;32.86
66582;SHT31;53438;48.898;2.308;2022-07-04T16:44:52;27.05;32.17
66582;SHT31;53438;48.898;2.308;2022-07-04T16:47:19;27.08;32.28
66582;SHT31;53438;48.898;2.308;2022-07-04T16:49:45;26.94;32.21
66582;SHT31;53438;48.898;2.308;2022-07-04T16:52:11;26.90;32.35
66582;SHT31;53438;48.898;2.308;2022-07-04T16:54:36;26.90;32.70
66582;SHT31;53438;48.898;2.308;2022-07-04T16:57:02;26.83;32.53
66582;SHT31;53438;48.898;2.308;2022-07-04T16:59:28;26.92;32.67
66582;SHT31;53438;48.898;2.308;2022-07-04T17:01:53;26.71;32.97
66582;SHT31;53438;48.898;2.308;2022-07-04T17:04:18;26.77;32.81
66582;SHT31;53438;48.898;2.308;2022-07-04T17:06:44;26.80;33.24
66582;SHT31;53438;48.898;2.308;2022-07-04T17:09:10;26.78;33.26
66582;SHT31;53438;48.898;2.308;2022-07-04T17:11:35;26.70;33.40
66582;SHT31;53438;48.898;2.308;2022-07-04T17:14:02;26.64;33.56
66582;SHT31;53438;48.898;2.308;2022-07-04T17:16:28;26.74;33.30
66582;SHT31;53438;48.898;2.308;2022-07-04T17:18:54;26.63;33.36
66582;SHT31;53438;48.898;2.308;2022-07-04T17:21:20;26.43;33.85
66582;SHT31;53438;48.898;2.308;2022-07-04T17:23:45;26.50;35.12
66582;SHT31;53438;48.898;2.308;2022-07-04T17:26:11;26.46;34.08
66582;SHT31;53438;48.898;2.308;2022-07-04T17:28:36;26.36;34.44
66582;SHT31;53438;48.898;2.308;2022-07-04T17:31:02;26.37;34.47
66582;SHT31;53438;48.898;2.308;2022-07-04T17:33:27;26.00;35.25
66582;SHT31;53438;48.898;2.308;2022-07-04T17:35:52;26.06;34.82
66582;SHT31;53438;48.898;2.308;2022-07-04T17:38:18;25.93;34.83
66582;SHT31;53438;48.898;2.308;2022-07-04T17:40:44;26.06;34.81
66582;SHT31;53438;48.898;2.308;2022-07-04T17:43:31;26.09;34.98
66582;SHT31;53438;48.898;2.308;2022-07-04T17:45:56;26.09;35.07
66582;SHT31;53438;48.898;2.308;2022-07-04T17:48:21;26.08;35.70
66582;SHT31;53438;48.898;2.308;2022-07-04T17:50:47;26.02;35.81
66582;SHT31;53438;48.898;2.308;2022-07-04T17:53:12;25.90;36.64
66582;SHT31;53438;48.898;2.308;2022-07-04T17:55:38;26.02;35.77
66582;SHT31;53438;48.898;2.308;2022-07-04T17:58:05;25.85;35.57
66582;SHT31;53438;48.898;2.308;2022-07-04T18:00:30;25.78;35.40
66582;SHT31;53438;48.898;2.308;2022-07-04T18:02:56;25.69;35.26
66582;SHT31;53438;48.898;2.308;2022-07-04T18:05:22;25.68;35.58
66582;SHT31;53438;48.898;2.308;2022-07-04T18:07:47;25.67;35.71
66582;SHT31;53438;48.898;2.308;2022-07-04T18:10:12;25.62;35.64
66582;SHT31;53438;48.898;2.308;2022-07-04T18:12:38;25.61;35.88
66582;SHT31;53438;48.898;2.308;2022-07-04T18:15:04;25.52;36.35
66582;SHT31;53438;48.898;2.308;2022-07-04T18:17:29;25.52;36.53
66582;SHT31;53438;48.898;2.308;2022-07-04T18:19:55;25.54;36.92
66582;SHT31;53438;48.898;2.308;2022-07-04T18:22:20;25.41;37.28
66582;SHT31;53438;48.898;2.308;2022-07-04T18:24:46;25.35;37.62
66582;SHT31;53438;48.898;2.308;2022-07-04T18:27:11;25.34;37.86
66582;SHT31;53438;48.898;2.308;2022-07-04T18:29:36;25.16;38.28
66582;SHT31;53438;48.898;2.308;2022-07-04T18:32:02;25.20;38.46
66582;SHT31;53438;48.898;2.308;2022-07-04T18:34:27;25.06;38.78
66582;SHT31;53438;48.898;2.308;2022-07-04T18:36:53;25.00;39.16
66582;SHT31;53438;48.898;2.308;2022-07-04T18:39:18;24.96;39.37
66582;SHT31;53438;48.898;2.308;2022-07-04T18:41:45;25.00;39.51
66582;SHT31;53438;48.898;2.308;2022-07-04T18:44:29;24.90;40.00
66582;SHT31;53438;48.898;2.308;2022-07-04T18:46:55;24.83;40.52
66582;SHT31;53438;48.898;2.308;2022-07-04T18:49:24;24.83;40.40
66582;SHT31;53438;48.898;2.308;2022-07-04T18:51:49;24.82;40.77
66582;SHT31;53438;48.898;2.308;2022-07-04T18:54:14;24.72;41.12